sensor_id;sensor_type;location;lat;lon;timestamp;pressure;altitude;pressure_sealevel;temperature;humidity
20710;BME280;10516;51.518;9.864;2023-03-04T00:00:19;99457.59;;;2.24;79.20
20710;BME280;10516;51.518;9.864;2023-03-04T00:02:45;99451.78;;;2.14;79.33
20710;BME280;10516;51.518;9.864;2023-03-04T00:05:10;99443.88;;;2.43;79.00
20710;BME280;10516;51.518;9.864;2023-03-04T00:07:35;99441.97;;;2.52;78.43
20710;BME280;10516;51.518;9.864;2023-03-04T00:10:01;99440.69;;;2.62;77.72
20710;BME280;10516;51.518;9.864;2023-03-04T00:12:26;99432.63;;;2.64;77.81
20710;BME280;10516;51.518;9.864;2023-03-04T00:14:51;99437.91;;;2.64;78.07
20710;BME280;10516;51.518;9.864;2023-03-04T00:17:16;99433.19;;;2.59;77.80
20710;BME280;10516;51.518;9.864;2023-03-04T00:19:42;99442.69;;;2.16;79.36
20710;BME280;10516;51.518;9.864;2023-03-04T00:22:07;99441.53;;;2.48;78.58
20710;BME280;10516;51.518;9.864;2023-03-04T00:24:32;99440.88;;;2.17;79.78
20710;BME280;10516;51.518;9.864;2023-03-04T00:26:59;99438.97;;;2.25;79.23
20710;BME280;10516;51.518;9.864;2023-03-04T00:29:24;99439.69;;;2.34;79.43
20710;BME280;10516;51.518;9.864;2023-03-04T00:31:49;99429.81;;;2.21;79.04
20710;BME280;10516;51.518;9.864;2023-03-04T00:34:14;99430.72;;;2.14;79.67
20710;BME280;10516;51.518;9.864;2023-03-04T00:36:40;99431.91;;;2.26;79.60
20710;BME280;10516;51.518;9.864;2023-03-04T00:39:08;99432.88;;;1.96;79.76
20710;BME280;10516;51.518;9.864;2023-03-04T00:41:33;99424.72;;;2.35;79.15
20710;BME280;10516;51.518;9.864;2023-03-04T00:43:58;99421.63;;;2.46;78.64
20710;BME280;10516;51.518;9.864;2023-03-04T00:46:24;99429.91;;;2.28;79.09
20710;BME280;10516;51.518;9.864;2023-03-04T00:48:49;99420.09;;;2.37;78.67
20710;BME280;10516;51.518;9.864;2023-03-04T00:51:14;99426.97;;;2.08;79.21
20710;BME280;10516;51.518;9.864;2023-03-04T00:53:39;99430.16;;;2.18;79.78
20710;BME280;10516;51.518;9.864;2023-03-04T00:56:05;99430.78;;;1.91;79.87
20710;BME280;10516;51.518;9.864;2023-03-04T00:58:30;99422.13;;;1.68;81.25
20710;BME280;10516;51.518;9.864;2023-03-04T01:00:55;99435.91;;;2.07;80.13
20710;BME280;10516;51.518;9.864;2023-03-04T01:03:21;99427.28;;;2.13;79.57
20710;BME280;10516;51.518;9.864;2023-03-04T01:05:46;99426.38;;;2.36;79.15
20710;BME280;10516;51.518;9.864;2023-03-04T01:08:11;99423.72;;;2.06;80.01
20710;BME280;10516;51.518;9.864;2023-03-04T01:10:36;99419.56;;;2.26;79.51
20710;BME280;10516;51.518;9.864;2023-03-04T01:13:02;99413.94;;;2.44;78.77
20710;BME280;10516;51.518;9.864;2023-03-04T01:15:27;99414.47;;;2.40;78.31
20710;BME280;10516;51.518;9.864;2023-03-04T01:17:52;99417.38;;;2.15;79.49
20710;BME280;10516;51.518;9.864;2023-03-04T01:20:18;99411.00;;;2.10;79.69
20710;BME280;10516;51.518;9.864;2023-03-04T01:22:43;99408.84;;;2.28;79.29
20710;BME280;10516;51.518;9.864;2023-03-04T01:25:08;99410.28;;;2.16;79.33
20710;BME280;10516;51.518;9.864;2023-03-04T01:27:34;99406.84;;;1.64;80.27
20710;BME280;10516;51.518;9.864;2023-03-04T01:29:59;99402.94;;;2.26;79.74
20710;BME280;10516;51.518;9.864;2023-03-04T01:32:24;99403.91;;;2.10;80.05
20710;BME280;10516;51.518;9.864;2023-03-04T01:34:50;99398.22;;;2.07;79.88
20710;BME280;10516;51.518;9.864;2023-03-04T01:37:15;99395.13;;;2.18;79.79
20710;BME280;10516;51.518;9.864;2023-03-04T01:39:40;99390.75;;;1.96;80.11
20710;BME280;10516;51.518;9.864;2023-03-04T01:42:08;99376.84;;;2.16;79.32
20710;BME280;10516;51.518;9.864;2023-03-04T01:44:37;99387.59;;;2.15;79.54
20710;BME280;10516;51.518;9.864;2023-03-04T01:47:02;99390.91;;;1.80;79.92
20710;BME280;10516;51.518;9.864;2023-03-04T01:49:28;99373.44;;;2.16;79.56
20710;BME280;10516;51.518;9.864;2023-03-04T01:51:53;99377.97;;;2.07;80.14
20710;BME280;10516;51.518;9.864;2023-03-04T01:54:19;99367.59;;;2.06;80.02
20710;BME280;10516;51.518;9.864;2023-03-04T01:56:45;99373.88;;;2.05;79.86
20710;BME280;10516;51.518;9.864;2023-03-04T01:59:12;99368.63;;;2.05;80.05
20710;BME280;10516;51.518;9.864;2023-03-04T02:01:38;99368.63;;;2.05;79.86
20710;BME280;10516;51.518;9.864;2023-03-04T02:04:04;99367.53;;;2.28;79.60
20710;BME280;10516;51.518;9.864;2023-03-04T02:06:30;99366.78;;;2.35;79.20
20710;BME280;10516;51.518;9.864;2023-03-04T02:08:56;99352.31;;;2.45;78.95
20710;BME280;10516;51.518;9.864;2023-03-04T02:11:21;99358.34;;;2.39;78.65
20710;BME280;10516;51.518;9.864;2023-03-04T02:13:46;99357.09;;;2.20;79.57
20710;BME280;10516;51.518;9.864;2023-03-04T02:16:12;99359.25;;;2.17;79.54
20710;BME280;10516;51.518;9.864;2023-03-04T02:18:37;99358.88;;;2.05;79.67
20710;BME280;10516;51.518;9.864;2023-03-04T02:23:43;99352.00;;;2.34;79.43
20710;BME280;10516;51.518;9.864;2023-03-04T02:28:37;99341.81;;;2.31;79.16
20710;BME280;10516;51.518;9.864;2023-03-04T02:31:03;99330.25;;;2.32;79.34
20710;BME280;10516;51.518;9.864;2023-03-04T02:33:28;99335.53;;;2.32;79.49
20710;BME280;10516;51.518;9.864;2023-03-04T02:35:53;99326.53;;;2.41;79.03
20710;BME280;10516;51.518;9.864;2023-03-04T02:38:19;99343.72;;;2.22;79.37
20710;BME280;10516;51.518;9.864;2023-03-04T02:40:46;99330.34;;;2.38;79.08
20710;BME280;10516;51.518;9.864;2023-03-04T02:43:12;99340.63;;;2.18;79.27
20710;BME280;10516;51.518;9.864;2023-03-04T02:45:45;99336.44;;;2.39;79.26
20710;BME280;10516;51.518;9.864;2023-03-04T02:48:11;99322.09;;;2.41;78.96
20710;BME280;10516;51.518;9.864;2023-03-04T02:50:39;99331.91;;;2.33;79.39
20710;BME280;10516;51.518;9.864;2023-03-04T02:53:04;99331.72;;;2.34;78.93
20710;BME280;10516;51.518;9.864;2023-03-04T02:55:30;99323.19;;;2.32;79.00
20710;BME280;10516;51.518;9.864;2023-03-04T02:57:56;99323.47;;;2.37;79.12
20710;BME280;10516;51.518;9.864;2023-03-04T03:00:21;99322.28;;;2.25;79.25
20710;BME280;10516;51.518;9.864;2023-03-04T03:02:46;99321.75;;;2.15;79.17
20710;BME280;10516;51.518;9.864;2023-03-04T03:05:12;99319.91;;;2.30;80.23
20710;BME280;10516;51.518;9.864;2023-03-04T03:07:38;99323.03;;;2.19;79.61
20710;BME280;10516;51.518;9.864;2023-03-04T03:10:03;99322.84;;;2.06;80.01
20710;BME280;10516;51.518;9.864;2023-03-04T03:12:29;99319.19;;;2.36;79.63
20710;BME280;10516;51.518;9.864;2023-03-04T03:14:54;99327.72;;;2.38;79.13
20710;BME280;10516;51.518;9.864;2023-03-04T03:17:19;99324.91;;;2.40;79.15
20710;BME280;10516;51.518;9.864;2023-03-04T03:19:44;99321.56;;;2.31;79.16
20710;BME280;10516;51.518;9.864;2023-03-04T03:22:09;99327.25;;;2.49;78.87
20710;BME280;10516;51.518;9.864;2023-03-04T03:24:35;99324.38;;;2.44;79.07
20710;BME280;10516;51.518;9.864;2023-03-04T03:27:00;99325.00;;;2.46;78.82
20710;BME280;10516;51.518;9.864;2023-03-04T03:29:25;99325.00;;;2.46;79.16
20710;BME280;10516;51.518;9.864;2023-03-04T03:31:51;99319.97;;;2.51;79.03
20710;BME280;10516;51.518;9.864;2023-03-04T03:34:16;99322.84;;;2.35;79.15
20710;BME280;10516;51.518;9.864;2023-03-04T03:36:41;99320.31;;;2.27;79.77
20710;BME280;10516;51.518;9.864;2023-03-04T03:39:06;99311.41;;;2.28;79.29
20710;BME280;10516;51.518;9.864;2023-03-04T03:41:32;99311.69;;;2.54;78.75
20710;BME280;10516;51.518;9.864;2023-03-04T03:43:57;99314.59;;;2.59;78.53
20710;BME280;10516;51.518;9.864;2023-03-04T03:46:22;99308.72;;;2.43;78.44
20710;BME280;10516;51.518;9.864;2023-03-04T03:48:47;99311.31;;;2.21;79.62
20710;BME280;10516;51.518;9.864;2023-03-04T03:51:12;99311.91;;;2.38;79.44
20710;BME280;10516;51.518;9.864;2023-03-04T03:53:38;99312.38;;;2.42;79.10
20710;BME280;10516;51.518;9.864;2023-03-04T03:56:03;99310.69;;;2.19;79.16
20710;BME280;10516;51.518;9.864;2023-03-04T03:58:28;99304.31;;;2.28;79.48
20710;BME280;10516;51.518;9.864;2023-03-04T04:00:54;99310.88;;;2.54;79.32
20710;BME280;10516;51.518;9.864;2023-03-04T04:03:19;99308.72;;;2.43;79.07
20710;BME280;10516;51.518;9.864;2023-03-04T04:05:44;99301.13;;;2.33;79.65
20710;BME280;10516;51.518;9.864;2023-03-04T04:08:11;99302.88;;;2.26;79.76
20710;BME280;10516;51.518;9.864;2023-03-04T04:10:37;99292.41;;;2.33;79.33
20710;BME280;10516;51.518;9.864;2023-03-04T04:13:02;99296.09;;;2.38;78.87
20710;BME280;10516;51.518;9.864;2023-03-04T04:15:27;99295.16;;;2.60;78.86
20710;BME280;10516;51.518;9.864;2023-03-04T04:17:53;99294.25;;;2.17;79.75
20710;BME280;10516;51.518;9.864;2023-03-04T04:20:18;99288.94;;;2.47;79.10
20710;BME280;10516;51.518;9.864;2023-03-04T04:22:43;99288.00;;;2.54;78.81
20710;BME280;10516;51.518;9.864;2023-03-04T04:25:08;99283.97;;;2.58;78.39
20710;BME280;10516;51.518;9.864;2023-03-04T04:27:34;99281.41;;;2.65;78.25
20710;BME280;10516;51.518;9.864;2023-03-04T04:30:00;99289.16;;;2.31;79.41
20710;BME280;10516;51.518;9.864;2023-03-04T04:32:25;99292.22;;;2.34;79.20
20710;BME280;10516;51.518;9.864;2023-03-04T04:34:50;99287.41;;;2.38;79.45
20710;BME280;10516;51.518;9.864;2023-03-04T04:37:15;99288.06;;;2.25;79.19
20710;BME280;10516;51.518;9.864;2023-03-04T04:39:41;99278.88;;;2.36;79.17
20710;BME280;10516;51.518;9.864;2023-03-04T04:42:06;99279.59;;;2.29;79.79
20710;BME280;10516;51.518;9.864;2023-03-04T04:44:31;99278.53;;;2.60;79.21
20710;BME280;10516;51.518;9.864;2023-03-04T04:46:56;99281.88;;;2.33;79.37
20710;BME280;10516;51.518;9.864;2023-03-04T04:49:21;99276.81;;;2.52;78.90
20710;BME280;10516;51.518;9.864;2023-03-04T04:51:47;99276.41;;;2.49;78.84
20710;BME280;10516;51.518;9.864;2023-03-04T04:54:12;99282.22;;;2.44;79.23
20710;BME280;10516;51.518;9.864;2023-03-04T04:56:38;99283.41;;;2.42;79.06
20710;BME280;10516;51.518;9.864;2023-03-04T04:59:04;99283.00;;;2.59;78.78
20710;BME280;10516;51.518;9.864;2023-03-04T05:01:29;99281.06;;;2.32;79.31
20710;BME280;10516;51.518;9.864;2023-03-04T05:03:55;99282.34;;;2.57;78.95
20710;BME280;10516;51.518;9.864;2023-03-04T05:06:21;99278.31;;;2.40;78.95
20710;BME280;10516;51.518;9.864;2023-03-04T05:08:47;99277.59;;;2.32;79.95
20710;BME280;10516;51.518;9.864;2023-03-04T05:11:13;99283.34;;;2.56;78.99
20710;BME280;10516;51.518;9.864;2023-03-04T05:13:38;99276.34;;;2.63;78.86
20710;BME280;10516;51.518;9.864;2023-03-04T05:16:03;99282.78;;;2.61;78.90
20710;BME280;10516;51.518;9.864;2023-03-04T05:18:29;99276.69;;;2.60;78.87
20710;BME280;10516;51.518;9.864;2023-03-04T05:20:55;99281.81;;;2.62;78.65
20710;BME280;10516;51.518;9.864;2023-03-04T05:23:21;99280.72;;;2.56;79.05
20710;BME280;10516;51.518;9.864;2023-03-04T05:25:47;99278.31;;;2.40;78.96
20710;BME280;10516;51.518;9.864;2023-03-04T05:28:12;99279.69;;;2.36;79.49
20710;BME280;10516;51.518;9.864;2023-03-04T05:30:38;99273.78;;;2.70;78.91
20710;BME280;10516;51.518;9.864;2023-03-04T05:33:04;99282.91;;;2.53;79.11
20710;BME280;10516;51.518;9.864;2023-03-04T05:35:29;99277.97;;;2.64;78.72
20710;BME280;10516;51.518;9.864;2023-03-04T05:37:54;99282.66;;;2.48;79.05
20710;BME280;10516;51.518;9.864;2023-03-04T05:40:19;99280.84;;;2.48;79.27
20710;BME280;10516;51.518;9.864;2023-03-04T05:42:45;99282.50;;;2.70;78.89
20710;BME280;10516;51.518;9.864;2023-03-04T05:45:10;99274.47;;;2.57;78.89
20710;BME280;10516;51.518;9.864;2023-03-04T05:47:35;99278.13;;;2.42;79.29
20710;BME280;10516;51.518;9.864;2023-03-04T05:50:01;99278.53;;;2.60;79.20
20710;BME280;10516;51.518;9.864;2023-03-04T05:52:26;99265.38;;;2.60;79.25
20710;BME280;10516;51.518;9.864;2023-03-04T05:54:51;99278.97;;;2.63;79.04
20710;BME280;10516;51.518;9.864;2023-03-04T05:57:16;99274.25;;;2.59;79.29
20710;BME280;10516;51.518;9.864;2023-03-04T05:59:41;99278.06;;;2.56;79.35
20710;BME280;10516;51.518;9.864;2023-03-04T06:02:07;99271.63;;;2.59;79.15
20710;BME280;10516;51.518;9.864;2023-03-04T06:04:32;99270.31;;;2.48;79.54
20710;BME280;10516;51.518;9.864;2023-03-04T06:06:57;99267.25;;;2.66;79.09
20710;BME280;10516;51.518;9.864;2023-03-04T06:09:22;99276.97;;;2.29;79.93
20710;BME280;10516;51.518;9.864;2023-03-04T06:11:48;99284.09;;;2.50;79.53
20710;BME280;10516;51.518;9.864;2023-03-04T06:14:13;99280.84;;;2.48;79.67
20710;BME280;10516;51.518;9.864;2023-03-04T06:16:38;99284.19;;;2.57;79.12
20710;BME280;10516;51.518;9.864;2023-03-04T06:19:03;99283.00;;;2.59;79.27
20710;BME280;10516;51.518;9.864;2023-03-04T06:21:29;99293.88;;;2.56;79.40
20710;BME280;10516;51.518;9.864;2023-03-04T06:23:54;99282.59;;;2.62;79.37
20710;BME280;10516;51.518;9.864;2023-03-04T06:26:19;99286.13;;;2.69;78.96
20710;BME280;10516;51.518;9.864;2023-03-04T06:28:44;99290.25;;;2.57;79.47
20710;BME280;10516;51.518;9.864;2023-03-04T06:31:11;99287.50;;;2.65;79.13
20710;BME280;10516;51.518;9.864;2023-03-04T06:33:36;99294.72;;;2.57;79.51
20710;BME280;10516;51.518;9.864;2023-03-04T06:36:02;99291.19;;;2.50;79.77
20710;BME280;10516;51.518;9.864;2023-03-04T06:38:27;99294.34;;;2.60;79.82
20710;BME280;10516;51.518;9.864;2023-03-04T06:40:53;99292.28;;;2.76;79.20
20710;BME280;10516;51.518;9.864;2023-03-04T06:43:18;99289.81;;;2.54;79.61
20710;BME280;10516;51.518;9.864;2023-03-04T06:45:43;99293.94;;;2.77;79.16
20710;BME280;10516;51.518;9.864;2023-03-04T06:48:09;99300.31;;;2.68;79.24
20710;BME280;10516;51.518;9.864;2023-03-04T06:50:34;99301.31;;;2.67;79.65
20710;BME280;10516;51.518;9.864;2023-03-04T06:52:59;99295.28;;;2.52;79.94
20710;BME280;10516;51.518;9.864;2023-03-04T06:55:24;99294.09;;;2.76;79.38
20710;BME280;10516;51.518;9.864;2023-03-04T06:57:50;99297.06;;;2.66;79.54
20710;BME280;10516;51.518;9.864;2023-03-04T07:00:15;99295.47;;;2.72;79.93
20710;BME280;10516;51.518;9.864;2023-03-04T07:02:41;99296.84;;;2.68;79.89
20710;BME280;10516;51.518;9.864;2023-03-04T07:05:07;99298.88;;;2.66;79.88
20710;BME280;10516;51.518;9.864;2023-03-04T07:07:33;99305.09;;;2.79;79.46
20710;BME280;10516;51.518;9.864;2023-03-04T07:09:58;99298.53;;;2.75;79.78
20710;BME280;10516;51.518;9.864;2023-03-04T07:12:23;99301.00;;;2.77;79.52
20710;BME280;10516;51.518;9.864;2023-03-04T07:14:48;99293.91;;;2.98;79.34
20710;BME280;10516;51.518;9.864;2023-03-04T07:17:14;99295.88;;;2.90;79.30
20710;BME280;10516;51.518;9.864;2023-03-04T07:19:39;99287.56;;;2.93;79.10
20710;BME280;10516;51.518;9.864;2023-03-04T07:22:05;99292.66;;;2.94;79.26
20710;BME280;10516;51.518;9.864;2023-03-04T07:24:31;99289.00;;;2.95;79.07
20710;BME280;10516;51.518;9.864;2023-03-04T07:26:56;99288.19;;;2.53;80.83
20710;BME280;10516;51.518;9.864;2023-03-04T07:29:21;99300.69;;;2.86;79.67
20710;BME280;10516;51.518;9.864;2023-03-04T07:31:46;99295.47;;;2.93;79.44
20710;BME280;10516;51.518;9.864;2023-03-04T07:34:12;99290.22;;;3.14;78.81
20710;BME280;10516;51.518;9.864;2023-03-04T07:36:38;99291.16;;;3.07;79.05
20710;BME280;10516;51.518;9.864;2023-03-04T07:39:04;99293.59;;;3.08;78.58
20710;BME280;10516;51.518;9.864;2023-03-04T07:41:29;99293.47;;;3.16;79.29
20710;BME280;10516;51.518;9.864;2023-03-04T07:43:55;99301.81;;;3.20;78.98
20710;BME280;10516;51.518;9.864;2023-03-04T07:46:20;99295.09;;;3.17;79.34
20710;BME280;10516;51.518;9.864;2023-03-04T07:48:46;99295.13;;;3.24;79.02
20710;BME280;10516;51.518;9.864;2023-03-04T07:51:12;99295.50;;;3.14;79.59
20710;BME280;10516;51.518;9.864;2023-03-04T07:53:39;99296.63;;;3.33;78.62
20710;BME280;10516;51.518;9.864;2023-03-04T07:56:05;99291.97;;;3.07;79.98
20710;BME280;10516;51.518;9.864;2023-03-04T07:58:31;99294.34;;;3.23;79.39
20710;BME280;10516;51.518;9.864;2023-03-04T08:00:56;99297.41;;;3.27;79.18
20710;BME280;10516;51.518;9.864;2023-03-04T08:03:22;99296.88;;;3.38;78.89
20710;BME280;10516;51.518;9.864;2023-03-04T08:05:47;99303.78;;;3.39;79.12
20710;BME280;10516;51.518;9.864;2023-03-04T08:08:12;99300.78;;;3.42;78.78
20710;BME280;10516;51.518;9.864;2023-03-04T08:10:37;99300.00;;;3.48;79.50
20710;BME280;10516;51.518;9.864;2023-03-04T08:13:04;99295.13;;;3.45;79.33
20710;BME280;10516;51.518;9.864;2023-03-04T08:15:29;99297.25;;;3.35;79.77
20710;BME280;10516;51.518;9.864;2023-03-04T08:17:56;99290.88;;;3.50;79.55
20710;BME280;10516;51.518;9.864;2023-03-04T08:20:22;99279.28;;;3.45;79.47
20710;BME280;10516;51.518;9.864;2023-03-04T08:22:47;99277.00;;;3.69;78.69
20710;BME280;10516;51.518;9.864;2023-03-04T08:25:12;99275.72;;;3.59;78.90
20710;BME280;10516;51.518;9.864;2023-03-04T08:27:37;99271.38;;;3.45;79.61
20710;BME280;10516;51.518;9.864;2023-03-04T08:30:03;99275.09;;;3.57;78.99
20710;BME280;10516;51.518;9.864;2023-03-04T08:32:29;99273.63;;;3.48;79.40
20710;BME280;10516;51.518;9.864;2023-03-04T08:34:54;99277.63;;;3.71;78.79
20710;BME280;10516;51.518;9.864;2023-03-04T08:37:20;99272.47;;;3.57;79.34
20710;BME280;10516;51.518;9.864;2023-03-04T08:39:46;99275.88;;;3.51;79.15
20710;BME280;10516;51.518;9.864;2023-03-04T08:42:11;99277.22;;;3.68;78.52
20710;BME280;10516;51.518;9.864;2023-03-04T08:44:36;99279.34;;;3.86;78.32
20710;BME280;10516;51.518;9.864;2023-03-04T08:47:01;99277.50;;;3.79;78.84
20710;BME280;10516;51.518;9.864;2023-03-04T08:49:27;99276.59;;;3.66;79.88
20710;BME280;10516;51.518;9.864;2023-03-04T08:51:52;99278.06;;;3.75;79.70
20710;BME280;10516;51.518;9.864;2023-03-04T08:54:17;99282.56;;;3.81;79.33
20710;BME280;10516;51.518;9.864;2023-03-04T08:56:42;99280.53;;;3.83;78.87
20710;BME280;10516;51.518;9.864;2023-03-04T08:59:08;99280.75;;;3.82;79.41
20710;BME280;10516;51.518;9.864;2023-03-04T09:01:33;99277.56;;;3.93;78.57
20710;BME280;10516;51.518;9.864;2023-03-04T09:03:58;99279.72;;;3.83;79.19
20710;BME280;10516;51.518;9.864;2023-03-04T09:06:23;99278.34;;;3.87;79.54
20710;BME280;10516;51.518;9.864;2023-03-04T09:08:49;99272.63;;;3.83;79.23
20710;BME280;10516;51.518;9.864;2023-03-04T09:11:14;99272.63;;;3.83;80.00
20710;BME280;10516;51.518;9.864;2023-03-04T09:13:39;99268.78;;;3.86;79.99
20710;BME280;10516;51.518;9.864;2023-03-04T09:16:09;99268.56;;;3.87;79.96
20710;BME280;10516;51.518;9.864;2023-03-04T09:18:35;99276.13;;;3.90;79.75
20710;BME280;10516;51.518;9.864;2023-03-04T09:21:00;99270.63;;;3.92;80.07
20710;BME280;10516;51.518;9.864;2023-03-04T09:23:25;99267.81;;;3.93;80.28
20710;BME280;10516;51.518;9.864;2023-03-04T09:25:51;99269.81;;;3.91;79.95
20710;BME280;10516;51.518;9.864;2023-03-04T09:28:16;99266.97;;;3.86;80.91
20710;BME280;10516;51.518;9.864;2023-03-04T09:30:42;99267.72;;;3.80;81.38
20710;BME280;10516;51.518;9.864;2023-03-04T09:33:07;99264.94;;;3.88;81.12
20710;BME280;10516;51.518;9.864;2023-03-04T09:35:33;99271.13;;;4.02;80.48
20710;BME280;10516;51.518;9.864;2023-03-04T09:37:58;99266.63;;;4.02;80.47
20710;BME280;10516;51.518;9.864;2023-03-04T09:40:28;99269.88;;;4.04;79.91
20710;BME280;10516;51.518;9.864;2023-03-04T09:42:55;99259.31;;;4.04;80.16
20710;BME280;10516;51.518;9.864;2023-03-04T09:45:32;99258.56;;;4.17;80.55
20710;BME280;10516;51.518;9.864;2023-03-04T09:47:59;99265.91;;;4.21;80.49
20710;BME280;10516;51.518;9.864;2023-03-04T09:50:24;99263.63;;;4.12;80.74
20710;BME280;10516;51.518;9.864;2023-03-04T09:55:27;99257.81;;;4.36;80.12
20710;BME280;10516;51.518;9.864;2023-03-04T10:05:33;99263.28;;;4.28;80.80
20710;BME280;10516;51.518;9.864;2023-03-04T10:10:45;99263.91;;;4.30;81.41
20710;BME280;10516;51.518;9.864;2023-03-04T10:13:13;99262.47;;;4.27;81.26
20710;BME280;10516;51.518;9.864;2023-03-04T10:15:41;99263.94;;;4.43;80.43
20710;BME280;10516;51.518;9.864;2023-03-04T10:20:42;99261.09;;;4.38;80.38
20710;BME280;10516;51.518;9.864;2023-03-04T10:23:09;99265.31;;;4.26;81.22
20710;BME280;10516;51.518;9.864;2023-03-04T10:25:35;99265.16;;;4.40;80.51
20710;BME280;10516;51.518;9.864;2023-03-04T10:33:12;99265.16;;;4.40;81.23
20710;BME280;10516;51.518;9.864;2023-03-04T10:35:37;99257.00;;;4.35;80.81
20710;BME280;10516;51.518;9.864;2023-03-04T10:38:03;99262.72;;;4.32;81.47
20710;BME280;10516;51.518;9.864;2023-03-04T10:40:28;99255.56;;;4.33;80.75
20710;BME280;10516;51.518;9.864;2023-03-04T10:43:01;99264.72;;;4.37;81.06
20710;BME280;10516;51.518;9.864;2023-03-04T10:45:31;99246.84;;;4.32;80.70
20710;BME280;10516;51.518;9.864;2023-03-04T10:47:59;99244.63;;;4.42;80.79
20710;BME280;10516;51.518;9.864;2023-03-04T10:50:26;99250.31;;;4.39;80.60
20710;BME280;10516;51.518;9.864;2023-03-04T10:52:52;99253.38;;;4.36;81.30
20710;BME280;10516;51.518;9.864;2023-03-04T10:57:52;99250.13;;;4.41;80.69
20710;BME280;10516;51.518;9.864;2023-03-04T11:00:26;99251.13;;;4.40;81.29
20710;BME280;10516;51.518;9.864;2023-03-04T11:02:52;99242.59;;;4.38;81.46
20710;BME280;10516;51.518;9.864;2023-03-04T11:07:53;99239.38;;;4.62;80.17
20710;BME280;10516;51.518;9.864;2023-03-04T11:12:50;99233.06;;;4.56;80.64
20710;BME280;10516;51.518;9.864;2023-03-04T11:15:20;99234.09;;;4.55;80.56
20710;BME280;10516;51.518;9.864;2023-03-04T11:17:51;99242.44;;;4.59;81.27
20710;BME280;10516;51.518;9.864;2023-03-04T11:22:49;99254.06;;;4.71;80.17
20710;BME280;10516;51.518;9.864;2023-03-04T11:25:34;99232.91;;;4.71;80.12
20710;BME280;10516;51.518;9.864;2023-03-04T11:30:41;99233.53;;;4.80;79.34
20710;BME280;10516;51.518;9.864;2023-03-04T11:35:44;99229.19;;;4.46;81.85
20710;BME280;10516;51.518;9.864;2023-03-04T11:54:05;99223.75;;;4.74;81.68
20710;BME280;10516;51.518;9.864;2023-03-04T12:07:03;99202.78;;;4.72;82.02
20710;BME280;10516;51.518;9.864;2023-03-04T12:15:27;99192.03;;;4.87;82.28
20710;BME280;10516;51.518;9.864;2023-03-04T12:18:04;99192.81;;;4.68;82.56
20710;BME280;10516;51.518;9.864;2023-03-04T12:20:53;99183.66;;;4.64;82.61
20710;BME280;10516;51.518;9.864;2023-03-04T12:23:27;99179.81;;;4.60;82.67
20710;BME280;10516;51.518;9.864;2023-03-04T12:36:09;99170.88;;;4.54;85.01
20710;BME280;10516;51.518;9.864;2023-03-04T12:48:41;99162.53;;;4.77;83.94
20710;BME280;10516;51.518;9.864;2023-03-04T12:53:53;99147.88;;;4.81;84.19
20710;BME280;10516;51.518;9.864;2023-03-04T12:58:45;99139.56;;;4.64;83.58
20710;BME280;10516;51.518;9.864;2023-03-04T13:01:15;99143.63;;;4.73;83.83
20710;BME280;10516;51.518;9.864;2023-03-04T13:11:32;99139.56;;;4.64;83.41
20710;BME280;10516;51.518;9.864;2023-03-04T13:14:01;99147.09;;;4.61;83.59
20710;BME280;10516;51.518;9.864;2023-03-04T13:16:29;99137.91;;;4.56;84.16
20710;BME280;10516;51.518;9.864;2023-03-04T13:18:55;99145.22;;;4.41;83.62
20710;BME280;10516;51.518;9.864;2023-03-04T13:21:21;99155.63;;;4.49;84.53
20710;BME280;10516;51.518;9.864;2023-03-04T13:23:47;99150.91;;;4.38;84.71
20710;BME280;10516;51.518;9.864;2023-03-04T13:26:17;99152.34;;;4.41;83.98
20710;BME280;10516;51.518;9.864;2023-03-04T13:28:44;99142.16;;;4.18;85.04
20710;BME280;10516;51.518;9.864;2023-03-04T13:36:04;99140.97;;;4.60;84.29
20710;BME280;10516;51.518;9.864;2023-03-04T13:38:33;99132.22;;;4.53;84.28
20710;BME280;10516;51.518;9.864;2023-03-04T13:43:41;99135.25;;;4.37;86.54
20710;BME280;10516;51.518;9.864;2023-03-04T13:48:41;99118.00;;;4.67;85.33
20710;BME280;10516;51.518;9.864;2023-03-04T13:51:13;99109.47;;;4.72;84.63
20710;BME280;10516;51.518;9.864;2023-03-04T13:53:41;99114.09;;;4.89;84.25
20710;BME280;10516;51.518;9.864;2023-03-04T13:56:08;99115.13;;;4.88;83.82
20710;BME280;10516;51.518;9.864;2023-03-04T13:58:34;99119.38;;;4.89;83.34
20710;BME280;10516;51.518;9.864;2023-03-04T14:01:00;99106.59;;;4.86;83.75
20710;BME280;10516;51.518;9.864;2023-03-04T14:03:26;99109.00;;;5.01;83.05
20710;BME280;10516;51.518;9.864;2023-03-04T14:08:36;99109.88;;;4.75;82.53
20710;BME280;10516;51.518;9.864;2023-03-04T14:11:01;99102.53;;;4.90;82.93
20710;BME280;10516;51.518;9.864;2023-03-04T14:13:26;99101.91;;;4.88;82.77
20710;BME280;10516;51.518;9.864;2023-03-04T14:15:53;99093.97;;;4.95;82.04
20710;BME280;10516;51.518;9.864;2023-03-04T14:18:19;99091.50;;;5.06;81.96
20710;BME280;10516;51.518;9.864;2023-03-04T14:20:47;99096.78;;;5.13;81.74
20710;BME280;10516;51.518;9.864;2023-03-04T14:23:30;99084.66;;;5.50;81.69
20710;BME280;10516;51.518;9.864;2023-03-04T14:26:12;99095.47;;;5.92;79.14
20710;BME280;10516;51.518;9.864;2023-03-04T14:28:45;99082.41;;;5.97;79.33
20710;BME280;10516;51.518;9.864;2023-03-04T14:31:15;99079.00;;;5.77;78.68
20710;BME280;10516;51.518;9.864;2023-03-04T14:33:48;99075.34;;;5.78;79.15
20710;BME280;10516;51.518;9.864;2023-03-04T14:36:16;99085.59;;;5.62;78.92
20710;BME280;10516;51.518;9.864;2023-03-04T14:38:42;99088.53;;;5.47;79.63
20710;BME280;10516;51.518;9.864;2023-03-04T14:41:09;99082.03;;;5.43;79.36
20710;BME280;10516;51.518;9.864;2023-03-04T14:43:41;99079.81;;;5.33;80.12
20710;BME280;10516;51.518;9.864;2023-03-04T14:46:11;99078.06;;;5.08;81.49
20710;BME280;10516;51.518;9.864;2023-03-04T14:48:37;99083.16;;;5.09;81.54
20710;BME280;10516;51.518;9.864;2023-03-04T14:51:02;99081.91;;;5.12;81.45
20710;BME280;10516;51.518;9.864;2023-03-04T14:53:28;99085.63;;;4.98;81.72
20710;BME280;10516;51.518;9.864;2023-03-04T14:56:07;99090.72;;;4.93;82.38
20710;BME280;10516;51.518;9.864;2023-03-04T14:58:34;99079.38;;;4.53;83.79
20710;BME280;10516;51.518;9.864;2023-03-04T15:03:28;99084.44;;;4.68;83.64
20710;BME280;10516;51.518;9.864;2023-03-04T15:05:54;99086.28;;;4.74;83.82